Barry Square, Connecticut
Current Conditions -  °F | °C
As of 10:53 AM on Saturday 25 Oct 2014 (Local Time) from KHFD Reporting Station
Clear Clear  
Wind Chill: 57°   Ceiling: Unl
Heat Index: 57°   Visibility: 10mi
Dew Point: 39°   Wind: 7mph
Humidity: 51%   Direction: 310°NW
Pressure: 29.79"   Gusts: NA
Location:  41.7391°N, 72.6703°W
Report Text: KHFD 251453Z 31006KT 10SM CLR 14/04 A2979 RMK AO2 SLP086 T01390039 58016
Loading
Personal Weather Stations






























Interactive Weather Map
Tropical Storm Tracking
New forecast layout! Learn more

10-Day Weather Forecast

Advertisements
Track Severe Weather on mobile